Time;durP1;ratioP1;P1;durP2;ratioP2;P2;SDS_P1;SDS_P2;PMS_P1;PMS_P2;Temp;Humidity;BMP_temperature;BMP_pressure;BME280_temperature;BME280_humidity;BME280_pressure;Samples;Min_cycle;Max_cycle;Signal;HPM_P1;HPM_P2
2021/10/13 00:00:13;;;;;;;;;11.33;9.67;;;;;15.78;60.81;101842.28;2091480;28;47579;-50
2021/10/13 00:01:16;;;;;;;;;11.00;9.50;;;;;15.77;60.67;101845.88;2090418;28;47094;-48
2021/10/13 00:02:16;;;;;;;;;12.00;10.25;;;;;15.74;61.38;101844.13;2090620;28;47788;-50
2021/10/13 00:03:17;;;;;;;;;11.00;11.00;;;;;15.74;61.39;101852.16;2090661;28;47341;-50
2021/10/13 00:04:18;;;;;;;;;12.00;11.33;;;;;15.73;61.44;101850.41;2091275;28;46788;-50
2021/10/13 00:05:18;;;;;;;;;8.75;8.75;;;;;15.72;61.05;101853.13;2090920;28;47939;-50
2021/10/13 00:06:19;;;;;;;;;9.67;9.67;;;;;15.70;61.35;101849.63;2090596;28;48385;-51
2021/10/13 00:07:19;;;;;;;;;8.00;8.00;;;;;15.69;61.03;101856.75;2090559;28;48184;-51
2021/10/13 00:08:20;;;;;;;;;8.33;8.33;;;;;15.68;61.25;101857.69;2091201;28;47165;-50
2021/10/13 00:09:20;;;;;;;;;8.67;8.67;;;;;15.68;61.54;101852.34;2091230;28;47273;-48
2021/10/13 00:10:21;;;;;;;;;10.00;8.67;;;;;15.68;61.21;101851.47;2090583;28;45310;-49
2021/10/13 00:11:21;;;;;;;;;9.33;9.33;;;;;15.65;61.68;101847.06;2079888;28;47645;-50
2021/10/13 00:12:22;;;;;;;;;9.00;9.00;;;;;15.66;61.76;101851.50;2083265;28;47706;-51
2021/10/13 00:13:22;;;;;;;;;9.00;9.00;;;;;15.64;61.34;101847.97;2091677;28;47316;-50
2021/10/13 00:14:23;;;;;;;;;10.00;9.00;;;;;15.63;61.76;101848.03;2091958;28;47353;-54
2021/10/13 00:15:24;;;;;;;;;11.00;11.00;;;;;15.62;61.54;101851.59;2084378;28;47938;-50
2021/10/13 00:16:25;;;;;;;;;10.67;10.67;;;;;15.61;61.44;101840.00;2092206;28;48116;-50
2021/10/13 00:17:25;;;;;;;;;15.25;10.75;;;;;15.60;61.43;101847.16;2092423;28;48295;-48
2021/10/13 00:18:27;;;;;;;;;10.00;9.00;;;;;15.59;61.81;101845.41;2091888;28;48610;-50
2021/10/13 00:19:27;;;;;;;;;12.00;12.00;;;;;15.59;61.43;101844.50;2091969;28;47096;-52
2021/10/13 00:20:28;;;;;;;;;9.67;8.33;;;;;15.59;61.51;101847.16;2092611;28;48339;-52
2021/10/13 00:21:28;;;;;;;;;12.33;11.33;;;;;15.57;61.76;101841.84;2092667;28;47203;-51
2021/10/13 00:22:29;;;;;;;;;10.67;10.67;;;;;15.58;61.84;101840.94;2092616;28;47269;-49
2021/10/13 00:23:29;;;;;;;;;9.33;9.33;;;;;15.59;62.02;101844.50;2092629;28;48131;-51
2021/10/13 00:24:30;;;;;;;;;11.00;11.00;;;;;15.60;62.29;101849.84;2091848;28;47530;-48
2021/10/13 00:25:30;;;;;;;;;10.33;9.00;;;;;15.60;62.10;101844.47;2091936;28;47153;-49
2021/10/13 00:26:31;;;;;;;;;11.33;9.33;;;;;15.63;61.99;101856.06;2100284;28;48113;-51
2021/10/13 00:27:32;;;;;;;;;12.00;11.00;;;;;15.63;61.82;101846.22;2100240;28;47103;-47
2021/10/13 00:28:32;;;;;;;;;12.00;11.00;;;;;15.63;62.17;101851.59;2092381;28;47499;-51
2021/10/13 00:29:36;;;;;;;;;10.67;10.67;;;;;15.64;61.98;101855.13;2092640;28;47509;-51
2021/10/13 00:30:36;;;;;;;;;11.25;11.25;;;;;15.61;61.62;101858.75;2091763;28;47651;-52
2021/10/13 00:31:37;;;;;;;;;12.33;10.67;;;;;15.60;62.00;101867.69;2091864;28;48182;-49
2021/10/13 00:32:37;;;;;;;;;12.67;10.67;;;;;15.57;62.12;101857.03;2092296;28;47022;-48
2021/10/13 00:33:41;;;;;;;;;11.25;11.25;;;;;15.57;62.12;101859.72;2092388;28;48062;-50
2021/10/13 00:34:41;;;;;;;;;10.67;9.33;;;;;15.56;62.01;101864.19;2092447;28;47205;-50
2021/10/13 00:35:42;;;;;;;;;9.00;9.00;;;;;15.55;62.21;101861.53;2092730;28;47014;-49
2021/10/13 00:36:42;;;;;;;;;9.33;9.00;;;;;15.53;62.28;101858.91;2092463;28;47425;-49
2021/10/13 00:37:42;;;;;;;;;9.00;7.67;;;;;15.52;61.87;101865.19;2092387;28;47249;-51
2021/10/13 00:38:43;;;;;;;;;9.00;9.00;;;;;15.51;62.07;101874.13;2092483;28;45438;-47
2021/10/13 00:39:43;;;;;;;;;7.67;7.67;;;;;15.49;62.13;101869.69;2092398;28;48011;-51
2021/10/13 00:40:44;;;;;;;;;10.67;10.33;;;;;15.48;62.27;101871.50;2092746;28;47182;-50
2021/10/13 00:41:44;;;;;;;;;9.00;9.00;;;;;15.48;61.85;101881.31;2092259;28;47265;-51
2021/10/13 00:42:45;;;;;;;;;11.67;11.67;;;;;15.46;61.88;101875.13;2097705;28;45242;-52
2021/10/13 00:43:45;;;;;;;;;13.00;12.33;;;;;15.44;62.03;101877.84;2092977;27;47485;-50
2021/10/13 00:44:46;;;;;;;;;10.67;9.00;;;;;15.43;62.14;101886.78;2092993;28;48203;-53
2021/10/13 00:45:49;;;;;;;;;13.00;11.67;;;;;15.42;62.00;101873.44;2091519;28;47219;-50
2021/10/13 00:46:49;;;;;;;;;10.50;10.50;;;;;15.41;62.17;101883.28;2091761;28;45343;-52
2021/10/13 00:47:50;;;;;;;;;12.00;10.67;;;;;15.40;62.09;101888.66;2092062;28;47142;-50
2021/10/13 00:48:50;;;;;;;;;12.33;11.67;;;;;15.39;62.21;101887.78;2092599;28;47247;-47
2021/10/13 00:49:51;;;;;;;;;12.00;12.00;;;;;15.38;62.34;101880.69;2092139;28;47231;-53
2021/10/13 00:50:52;;;;;;;;;12.00;11.00;;;;;15.39;62.20;101886.91;2092606;28;47239;-48
2021/10/13 00:51:52;;;;;;;;;11.33;11.00;;;;;15.38;62.79;101883.34;2092183;28;48132;-47
2021/10/13 00:52:53;;;;;;;;;13.33;13.00;;;;;15.38;62.71;101888.69;2092407;28;45392;-49
2021/10/13 00:53:53;;;;;;;;;11.00;10.00;;;;;15.39;62.12;101889.59;2092259;28;46882;-49
2021/10/13 00:54:54;;;;;;;;;9.33;8.33;;;;;15.39;62.67;101884.22;2092522;28;47810;-47
2021/10/13 00:55:56;;;;;;;;;10.33;9.33;;;;;15.40;62.65;101883.31;2091593;28;47543;-48
2021/10/13 00:56:57;;;;;;;;;11.00;10.00;;;;;15.39;62.32;101886.91;2091882;28;47202;-49
2021/10/13 00:57:57;;;;;;;;;10.67;10.67;;;;;15.39;62.28;101889.59;2083214;28;47104;-48
2021/10/13 00:58:58;;;;;;;;;14.33;12.33;;;;;15.37;62.16;101892.25;2083577;28;47173;-48
2021/10/13 00:59:58;;;;;;;;;12.33;11.33;;;;;15.37;62.18;101894.06;2092022;28;46999;-50
2021/10/13 01:01:02;;;;;;;;;11.67;11.67;;;;;15.35;62.32;101888.75;2092517;28;47909;-49
2021/10/13 01:02:15;;;;;;;;;9.75;9.75;;;;;15.34;62.51;101888.78;2092213;28;48228;-48
2021/10/13 01:03:23;;;;;;;;;9.50;9.50;;;;;15.32;62.33;101883.47;2092183;28;46008;-46
2021/10/13 01:04:38;;;;;;;;;9.50;9.00;;;;;15.30;62.59;101887.97;2085384;28;47432;-50
2021/10/13 01:05:59;;;;;;;;;11.50;11.25;;;;;15.29;62.36;101888.91;2088181;28;47176;-49
2021/10/13 01:07:15;;;;;;;;;11.00;10.75;;;;;15.28;62.70;101895.16;2086425;28;48193;-50
2021/10/13 01:08:28;;;;;;;;;9.75;9.75;;;;;15.25;62.42;101889.91;2092194;28;47132;-49
2021/10/13 01:09:59;;;;;;;;;11.75;11.75;;;;;15.24;62.68;101891.66;2092162;28;48451;-48
2021/10/13 01:11:37;;;;;;;;;13.00;11.50;;;;;15.22;62.58;101889.94;2094829;27;48531;-48
2021/10/13 01:12:52;;;;;;;;;12.00;12.00;;;;;15.22;62.52;101889.94;2084059;28;47263;-50
2021/10/13 01:14:19;;;;;;;;;13.50;11.50;;;;;15.21;62.68;101890.84;2090400;28;47213;-50
2021/10/13 01:15:53;;;;;;;;;9.25;9.25;;;;;15.18;62.64;101893.59;2091463;28;47330;-50
2021/10/13 01:16:56;;;;;;;;;7.50;7.50;;;;;15.17;62.23;101898.06;2087785;28;47148;-48
2021/10/13 01:18:06;;;;;;;;;10.00;8.75;;;;;15.16;62.44;101904.34;2091277;28;48238;-49
2021/10/13 01:19:34;;;;;;;;;10.50;10.50;;;;;15.15;62.78;101904.38;2092133;28;46232;-50
2021/10/13 01:21:03;;;;;;;;;10.50;9.75;;;;;15.12;62.97;101894.63;2092504;28;47440;-47
2021/10/13 01:22:28;;;;;;;;;12.00;11.50;;;;;15.11;62.75;101894.63;2084180;28;46756;-49
2021/10/13 01:24:12;;;;;;;;;9.50;9.25;;;;;15.08;62.66;101894.72;2078113;28;47869;-51
2021/10/13 01:25:22;;;;;;;;;9.75;8.25;;;;;15.03;62.87;101886.81;2089602;28;48319;-50
2021/10/13 01:26:40;;;;;;;;;10.50;9.75;;;;;15.02;62.45;101890.41;2092281;28;48265;-48
2021/10/13 01:28:14;;;;;;;;;9.00;9.00;;;;;15.00;62.69;101890.44;2092165;28;45432;-51
2021/10/13 01:29:19;;;;;;;;;13.25;13.25;;;;;14.98;62.77;101886.00;2087674;28;47804;-50
2021/10/13 01:30:22;;;;;;;;;9.00;9.00;;;;;14.97;62.75;101894.94;2092254;28;47352;-48
2021/10/13 01:31:35;;;;;;;;;9.50;9.00;;;;;14.96;62.69;101895.84;2091992;28;45383;-49
2021/10/13 01:32:39;;;;;;;;;14.75;13.75;;;;;14.95;62.73;101886.06;2092015;28;45297;-48
2021/10/13 01:33:52;;;;;;;;;10.75;10.25;;;;;14.93;62.70;101894.13;2092077;28;47511;-49
2021/10/13 01:34:57;;;;;;;;;10.75;10.75;;;;;14.93;63.16;101893.25;2092246;28;46271;-50
2021/10/13 01:36:04;;;;;;;;;10.25;10.25;;;;;14.90;62.88;101891.53;2092351;28;47292;-49
2021/10/13 01:37:08;;;;;;;;;8.00;8.00;;;;;14.89;63.01;101899.59;2092104;28;48059;-48
2021/10/13 01:38:14;;;;;;;;;10.50;10.25;;;;;14.87;63.26;101891.59;2091981;28;47168;-48
2021/10/13 01:39:15;;;;;;;;;10.50;10.25;;;;;14.86;63.06;101891.59;2092134;28;48137;-47
2021/10/13 01:40:18;;;;;;;;;11.33;11.33;;;;;14.84;62.94;101894.31;2092156;28;47127;-51
2021/10/13 01:41:21;;;;;;;;;8.00;8.00;;;;;14.84;62.84;101899.66;2091933;28;47363;-48
2021/10/13 01:42:24;;;;;;;;;9.50;9.50;;;;;14.83;62.96;101900.56;2092085;28;47245;-50
2021/10/13 01:43:26;;;;;;;;;9.00;8.75;;;;;14.82;63.24;101901.47;2092034;28;48075;-50
2021/10/13 01:44:30;;;;;;;;;9.50;9.50;;;;;14.81;62.93;101898.84;2091740;28;48226;-47
2021/10/13 01:45:33;;;;;;;;;10.60;9.40;;;;;14.82;63.16;101903.28;2091786;28;47359;-50
2021/10/13 01:46:33;;;;;;;;;8.75;8.75;;;;;14.80;63.12;101895.28;2092049;28;45308;-52
2021/10/13 01:47:35;;;;;;;;;12.67;11.00;;;;;14.79;62.72;101904.22;2091940;28;47161;-52
2021/10/13 01:48:38;;;;;;;;;9.50;9.50;;;;;14.78;62.98;101902.47;2091397;28;47560;-50
2021/10/13 01:49:39;;;;;;;;;11.60;10.20;;;;;14.77;63.05;101895.38;2091472;28;47125;-50
2021/10/13 01:50:40;;;;;;;;;10.33;9.00;;;;;14.77;63.22;101897.16;2091212;28;47319;-49
2021/10/13 01:51:43;;;;;;;;;12.80;11.60;;;;;14.74;63.05;101895.44;2091529;28;48141;-50
2021/10/13 01:52:48;;;;;;;;;10.00;10.00;;;;;14.75;63.04;101899.00;2091250;28;48418;-51
2021/10/13 01:53:49;;;;;;;;;9.50;9.25;;;;;14.73;62.95;101899.88;2090869;28;48385;-48
2021/10/13 01:54:53;;;;;;;;;9.00;9.00;;;;;14.73;62.95;101893.66;2087676;28;48136;-48
2021/10/13 01:55:56;;;;;;;;;11.25;9.75;;;;;14.73;63.30;101894.53;2091972;28;47486;-49
2021/10/13 01:56:59;;;;;;;;;11.75;11.50;;;;;14.71;63.21;101893.69;2091800;28;48199;-49
2021/10/13 01:58:02;;;;;;;;;12.25;11.00;;;;;14.70;63.22;101893.72;2091338;28;47238;-49
2021/10/13 01:59:07;;;;;;;;;12.25;11.00;;;;;14.69;62.91;101898.19;2083298;28;47222;-48
2021/10/13 02:00:08;;;;;;;;;10.75;10.75;;;;;14.68;62.86;101899.09;2075306;28;48395;-50
2021/10/13 02:01:11;;;;;;;;;12.25;12.00;;;;;14.67;63.21;101901.78;2082682;28;48041;-48
2021/10/13 02:02:13;;;;;;;;;9.75;9.25;;;;;14.66;62.95;101900.91;2092205;28;45873;-51
2021/10/13 02:03:14;;;;;;;;;12.50;10.25;;;;;14.66;63.21;101900.03;2091327;28;47448;-51
2021/10/13 02:04:16;;;;;;;;;11.00;11.00;;;;;14.65;63.28;101901.84;2092043;28;48372;-51
2021/10/13 02:05:17;;;;;;;;;10.25;10.25;;;;;14.64;63.20;101901.88;2090938;28;47186;-48
2021/10/13 02:06:20;;;;;;;;;11.75;11.75;;;;;14.63;63.04;101902.78;2091419;28;46965;-48
2021/10/13 02:07:22;;;;;;;;;11.00;9.00;;;;;14.62;63.11;101904.56;2091652;28;47443;-52
2021/10/13 02:08:25;;;;;;;;;8.75;8.75;;;;;14.62;63.25;101909.03;2091919;28;47383;-50
2021/10/13 02:09:28;;;;;;;;;8.00;8.00;;;;;14.60;63.01;101905.50;2091710;28;47386;-52
2021/10/13 02:10:30;;;;;;;;;11.50;11.50;;;;;14.59;63.22;101909.94;2091833;28;47377;-51
2021/10/13 02:11:32;;;;;;;;;9.75;9.75;;;;;14.58;62.87;101901.97;2092041;28;46266;-49
2021/10/13 02:12:35;;;;;;;;;11.50;11.50;;;;;14.56;62.75;101898.44;2092085;28;47376;-51
2021/10/13 02:13:37;;;;;;;;;11.25;10.00;;;;;14.55;62.80;101902.91;2091728;28;47204;-47
2021/10/13 02:14:40;;;;;;;;;9.50;9.00;;;;;14.54;63.36;101910.97;2091905;28;48185;-47
2021/10/13 02:15:45;;;;;;;;;9.00;9.00;;;;;14.52;62.80;101905.66;2092001;28;45829;-49
2021/10/13 02:16:49;;;;;;;;;11.25;10.00;;;;;14.50;63.26;101910.16;2091310;28;46334;-51
2021/10/13 02:17:51;;;;;;;;;9.75;9.75;;;;;14.50;62.79;101914.63;2090759;28;47459;-50
2021/10/13 02:18:52;;;;;;;;;11.75;10.00;;;;;14.48;62.95;101911.06;2091966;28;48023;-50
2021/10/13 02:19:56;;;;;;;;;9.75;9.75;;;;;14.46;63.24;101908.41;2091619;28;47284;-52
2021/10/13 02:21:00;;;;;;;;;9.75;8.75;;;;;14.45;63.00;101906.66;2091832;28;48061;-51
2021/10/13 02:22:03;;;;;;;;;8.25;7.50;;;;;14.43;63.08;101909.34;2091779;28;48101;-49
2021/10/13 02:23:05;;;;;;;;;10.00;9.25;;;;;14.42;63.22;101907.56;2091834;28;47078;-48
2021/10/13 02:24:07;;;;;;;;;8.00;7.00;;;;;14.42;63.00;101912.03;2091082;28;48163;-51
2021/10/13 02:25:08;;;;;;;;;13.50;11.25;;;;;14.42;63.36;101910.25;2091059;28;45294;-52
2021/10/13 02:26:16;;;;;;;;;9.33;8.33;;;;;14.41;62.87;101918.28;2091791;28;45293;-51
2021/10/13 02:27:23;;;;;;;;;10.00;9.00;;;;;14.40;63.20;101917.41;2091781;28;47564;-50
2021/10/13 02:28:31;;;;;;;;;8.25;8.25;;;;;14.40;63.13;101913.84;2091140;28;48282;-48
2021/10/13 02:29:32;;;;;;;;;9.50;9.50;;;;;14.39;62.90;101917.44;2091150;28;47019;-50
2021/10/13 02:30:32;;;;;;;;;10.67;10.67;;;;;14.38;62.81;101921.03;2091583;28;47217;-52
2021/10/13 02:31:33;;;;;;;;;11.33;11.33;;;;;14.38;62.80;101923.69;2091013;28;47305;-50
2021/10/13 02:32:33;;;;;;;;;7.33;7.33;;;;;14.35;62.77;101919.25;2082623;28;47618;-50
2021/10/13 02:33:36;;;;;;;;;10.33;9.00;;;;;14.34;62.96;101924.63;2090844;28;47205;-50
2021/10/13 02:34:40;;;;;;;;;8.00;7.75;;;;;14.32;63.06;101916.66;2091627;28;45289;-51
2021/10/13 02:35:41;;;;;;;;;8.50;8.50;;;;;14.31;62.77;101922.91;2091156;28;47005;-50
2021/10/13 02:36:41;;;;;;;;;10.33;8.00;;;;;14.31;62.74;101930.03;2090543;28;47063;-49
2021/10/13 02:37:42;;;;;;;;;9.00;9.00;;;;;14.30;62.64;101937.16;2091482;28;48238;-51
2021/10/13 02:38:42;;;;;;;;;8.33;8.33;;;;;14.29;62.94;101931.84;2091541;28;47281;-50
2021/10/13 02:39:43;;;;;;;;;7.33;6.33;;;;;14.28;62.60;101924.75;2091571;28;47332;-52
2021/10/13 02:40:43;;;;;;;;;7.67;7.67;;;;;14.28;62.99;101927.44;2091563;28;47278;-52
2021/10/13 02:41:44;;;;;;;;;8.67;8.67;;;;;14.26;62.86;101924.78;2090996;28;47324;-48
2021/10/13 02:42:45;;;;;;;;;7.67;7.67;;;;;14.25;63.02;101927.50;2091792;28;47284;-50
2021/10/13 02:43:45;;;;;;;;;10.00;8.33;;;;;14.24;62.72;101923.06;2091621;28;47330;-52
2021/10/13 02:44:46;;;;;;;;;9.33;8.00;;;;;14.24;62.80;101928.41;2090993;28;47105;-51
2021/10/13 02:45:56;;;;;;;;;8.00;8.00;;;;;14.23;63.41;101930.19;2090814;28;46973;-46
2021/10/13 02:47:06;;;;;;;;;8.00;8.00;;;;;14.22;62.65;101925.72;2090882;28;46286;-49
2021/10/13 02:48:17;;;;;;;;;7.25;7.25;;;;;14.21;62.65;101926.66;2083177;28;46833;-49
2021/10/13 02:49:25;;;;;;;;;9.25;9.00;;;;;14.19;62.75;101931.13;2089235;28;46686;-51
2021/10/13 02:50:59;;;;;;;;;9.00;9.00;;;;;14.18;62.83;101925.81;2091661;28;48039;-49
2021/10/13 02:52:12;;;;;;;;;7.00;5.75;;;;;14.16;62.68;101939.19;2091608;28;47339;-49
2021/10/13 02:53:37;;;;;;;;;6.50;6.50;;;;;14.17;62.99;101948.09;2090839;28;47159;-49
2021/10/13 02:54:49;;;;;;;;;7.00;7.00;;;;;14.15;62.46;101942.78;2091526;28;47696;-47
2021/10/13 02:55:57;;;;;;;;;7.25;6.50;;;;;14.14;62.48;101941.03;2091535;28;47508;-51
2021/10/13 02:57:01;;;;;;;;;8.00;8.00;;;;;14.12;62.43;101938.38;2091132;28;46220;-48
2021/10/13 02:58:19;;;;;;;;;8.00;8.00;;;;;14.11;62.73;101938.41;2090999;28;47979;-50
2021/10/13 02:59:32;;;;;;;;;8.25;8.25;;;;;14.10;62.53;101941.97;2090950;28;47362;-48
2021/10/13 03:00:35;;;;;;;;;7.75;7.25;;;;;14.09;62.68;101946.41;2091683;28;46838;-49
2021/10/13 03:01:41;;;;;;;;;6.00;6.00;;;;;14.09;62.49;101951.75;2091462;28;45668;-52
2021/10/13 03:03:07;;;;;;;;;8.00;8.00;;;;;14.08;62.30;101949.13;2091438;28;48477;-48
2021/10/13 03:04:34;;;;;;;;;7.00;7.00;;;;;14.08;62.47;101951.78;2091078;28;47464;-49
2021/10/13 03:05:38;;;;;;;;;7.75;7.75;;;;;14.06;62.35;101949.16;2087529;28;47298;-53
2021/10/13 03:06:46;;;;;;;;;7.50;7.50;;;;;14.06;62.43;101948.25;2085119;28;47349;-49
2021/10/13 03:07:47;;;;;;;;;9.50;7.50;;;;;14.05;62.43;101950.06;2090901;28;48076;-47
2021/10/13 03:08:51;;;;;;;;;9.50;7.50;;;;;14.05;62.25;101950.06;2091082;28;47468;-50
2021/10/13 03:10:01;;;;;;;;;6.00;6.00;;;;;14.05;62.26;101951.84;2090834;28;47160;-48
2021/10/13 03:11:03;;;;;;;;;7.00;6.75;;;;;14.03;62.25;101962.53;2084373;28;48266;-50
2021/10/13 03:12:06;;;;;;;;;6.75;6.50;;;;;14.03;62.19;101962.53;2081152;28;47341;-49
2021/10/13 03:13:07;;;;;;;;;8.25;8.25;;;;;14.01;62.08;101959.03;2090217;28;47374;-51
2021/10/13 03:14:08;;;;;;;;;5.25;5.25;;;;;14.02;62.18;101957.25;2091603;28;48032;-49
2021/10/13 03:15:11;;;;;;;;;9.33;7.67;;;;;14.00;62.22;101954.59;2091529;28;47356;-50
2021/10/13 03:16:12;;;;;;;;;7.50;7.00;;;;;14.00;62.12;101948.38;2091533;28;47339;-49
2021/10/13 03:17:14;;;;;;;;;9.33;9.33;;;;;14.00;62.06;101948.38;2091355;28;47377;-47
2021/10/13 03:18:16;;;;;;;;;7.50;7.50;;;;;13.99;62.28;101944.84;2091281;28;47517;-50
2021/10/13 03:19:22;;;;;;;;;7.00;5.25;;;;;13.99;62.00;101951.97;2091629;28;46364;-49
2021/10/13 03:20:24;;;;;;;;;10.00;9.50;;;;;13.98;61.86;101953.75;2091731;28;47339;-49
2021/10/13 03:21:28;;;;;;;;;17.20;16.20;;;;;13.99;61.99;101951.97;2091457;28;48289;-49
2021/10/13 03:22:29;;;;;;;;;14.00;11.75;;;;;13.98;62.24;101950.19;2091476;28;48066;-49
2021/10/13 03:23:29;;;;;;;;;13.00;12.00;;;;;13.97;62.07;101946.63;2082449;28;47845;-51
2021/10/13 03:24:30;;;;;;;;;9.33;9.00;;;;;13.97;62.07;101948.41;2074381;28;47219;-50
2021/10/13 03:25:32;;;;;;;;;10.00;9.67;;;;;13.96;61.96;101950.19;2090773;28;47413;-48
2021/10/13 03:26:33;;;;;;;;;6.25;5.50;;;;;13.95;61.91;101952.91;2091560;28;46469;-50
2021/10/13 03:27:33;;;;;;;;;12.67;11.00;;;;;13.94;61.89;101957.34;2091303;28;47603;-48
2021/10/13 03:28:34;;;;;;;;;7.67;7.67;;;;;13.93;62.17;101952.91;2091418;28;48316;-50
2021/10/13 03:29:40;;;;;;;;;8.00;8.00;;;;;13.93;62.17;101952.91;2091548;28;47179;-48
2021/10/13 03:30:43;;;;;;;;;6.25;6.25;;;;;13.91;62.05;101959.19;2091370;28;47310;-51
2021/10/13 03:31:44;;;;;;;;;6.50;6.00;;;;;13.89;61.84;101959.22;2091379;28;47408;-50
2021/10/13 03:32:46;;;;;;;;;10.00;10.00;;;;;13.89;61.81;101958.34;2091149;28;47468;-49
2021/10/13 03:33:49;;;;;;;;;7.75;7.75;;;;;13.89;62.13;101961.00;2091393;28;47363;-51
2021/10/13 03:34:49;;;;;;;;;7.50;7.00;;;;;13.89;61.92;101958.34;2091516;28;47486;-48
2021/10/13 03:35:50;;;;;;;;;6.67;6.33;;;;;13.89;62.27;101959.22;2091703;28;47966;-50
2021/10/13 03:36:51;;;;;;;;;9.00;8.00;;;;;13.89;61.89;101959.22;2091384;28;47309;-53
2021/10/13 03:37:53;;;;;;;;;7.00;5.33;;;;;13.89;62.27;101964.56;2091314;28;48121;-51
2021/10/13 03:38:54;;;;;;;;;10.00;7.25;;;;;13.90;61.88;101962.78;2082327;28;46897;-47
2021/10/13 03:39:56;;;;;;;;;6.67;6.67;;;;;13.88;61.83;101953.91;2082426;28;48074;-51
2021/10/13 03:40:57;;;;;;;;;6.75;6.75;;;;;13.89;62.06;101963.69;2090808;28;47373;-52
2021/10/13 03:42:00;;;;;;;;;8.00;8.00;;;;;13.88;61.91;101959.25;2090679;28;48280;-51
2021/10/13 03:43:01;;;;;;;;;7.00;7.00;;;;;13.87;61.96;101966.38;2091265;28;47487;-47
2021/10/13 03:44:02;;;;;;;;;8.67;8.00;;;;;13.87;61.85;101961.03;2091242;28;47434;-51
2021/10/13 03:45:03;;;;;;;;;9.75;8.00;;;;;13.87;62.09;101957.50;2091326;28;47249;-47
2021/10/13 03:46:04;;;;;;;;;9.00;9.00;;;;;13.87;62.10;101962.81;2091094;28;48250;-50
2021/10/13 03:47:05;;;;;;;;;8.33;7.00;;;;;13.86;62.11;101959.28;2090493;28;47095;-52
2021/10/13 03:48:06;;;;;;;;;9.25;7.50;;;;;13.87;62.00;101968.16;2091344;28;47405;-51
2021/10/13 03:49:07;;;;;;;;;7.67;7.00;;;;;13.87;62.03;101968.16;2092674;28;47541;-49
2021/10/13 03:50:09;;;;;;;;;6.33;6.00;;;;;13.86;62.21;101961.94;2093084;28;45367;-53
2021/10/13 03:51:10;;;;;;;;;7.50;7.50;;;;;13.85;62.20;101965.53;2092462;28;47259;-51
2021/10/13 03:52:10;;;;;;;;;7.67;6.00;;;;;13.85;62.13;101965.53;2092321;28;47219;-51
2021/10/13 03:53:11;;;;;;;;;6.33;6.33;;;;;13.84;62.14;101967.28;2091895;28;48044;-51
2021/10/13 03:54:11;;;;;;;;;10.00;7.33;;;;;13.84;62.28;101964.59;2092934;28;48406;-48
2021/10/13 03:55:14;;;;;;;;;7.33;6.33;;;;;13.83;62.00;101957.50;2092598;28;45943;-48
2021/10/13 03:56:16;;;;;;;;;8.00;8.00;;;;;13.81;62.08;101959.31;2092839;28;47206;-47
2021/10/13 03:57:16;;;;;;;;;8.25;8.25;;;;;13.82;61.89;101958.41;2092011;28;47335;-49
2021/10/13 03:58:17;;;;;;;;;11.67;10.33;;;;;13.81;61.88;101959.31;2083812;28;46158;-50
2021/10/13 03:59:17;;;;;;;;;5.67;5.67;;;;;13.80;62.14;101965.56;2092126;28;48125;-47
2021/10/13 04:00:20;;;;;;;;;7.00;7.00;;;;;13.80;61.93;101965.56;2092917;28;48508;-48
2021/10/13 04:01:20;;;;;;;;;7.25;7.25;;;;;13.81;62.18;101969.13;2092046;28;47505;-51
2021/10/13 04:02:21;;;;;;;;;7.33;7.33;;;;;13.80;62.04;101967.34;2091992;28;47300;-50
2021/10/13 04:03:21;;;;;;;;;7.67;7.00;;;;;13.81;62.17;101972.66;2092469;28;47499;-51
2021/10/13 04:04:22;;;;;;;;;7.00;6.33;;;;;13.81;62.31;101969.13;2092727;28;47427;-50
2021/10/13 04:05:22;;;;;;;;;9.00;8.00;;;;;13.80;62.01;101976.25;2092717;28;47923;-50
2021/10/13 04:06:23;;;;;;;;;9.00;8.67;;;;;13.80;62.10;101973.56;2092728;28;45940;-51
2021/10/13 04:07:23;;;;;;;;;9.67;7.67;;;;;13.80;62.08;101976.25;2092779;28;45369;-51
2021/10/13 04:08:24;;;;;;;;;9.00;8.00;;;;;13.79;62.00;101974.47;2092751;28;48238;-50
2021/10/13 04:09:24;;;;;;;;;9.00;8.00;;;;;13.80;61.83;101975.34;2092817;28;46318;-51
2021/10/13 04:10:25;;;;;;;;;8.00;8.00;;;;;13.79;62.04;101978.94;2092713;28;47148;-50
2021/10/13 04:11:25;;;;;;;;;9.33;8.00;;;;;13.79;61.93;101984.28;2092843;28;47344;-49
2021/10/13 04:12:26;;;;;;;;;9.33;6.33;;;;;13.79;61.96;101982.50;2092813;28;46324;-47
2021/10/13 04:13:27;;;;;;;;;10.00;8.33;;;;;13.80;62.21;101980.69;2092684;28;47010;-49
2021/10/13 04:14:27;;;;;;;;;8.00;8.00;;;;;13.79;61.87;101987.81;2092564;28;46129;-49
2021/10/13 04:15:28;;;;;;;;;6.00;6.00;;;;;13.79;61.87;101987.81;2092722;28;45674;-50
2021/10/13 04:16:28;;;;;;;;;7.33;7.33;;;;;13.80;61.92;101991.38;2092838;28;45218;-50
2021/10/13 04:17:29;;;;;;;;;8.25;7.25;;;;;13.80;61.86;101989.59;2092626;28;45319;-50
2021/10/13 04:18:29;;;;;;;;;9.00;9.00;;;;;13.80;61.92;101991.38;2091876;28;46875;-48
2021/10/13 04:19:30;;;;;;;;;8.25;8.25;;;;;13.81;61.99;101995.81;2083565;28;48585;-49
2021/10/13 04:20:30;;;;;;;;;8.00;8.00;;;;;13.80;61.91;101997.59;2092391;28;48176;-51
2021/10/13 04:21:31;;;;;;;;;9.00;7.75;;;;;13.79;62.22;101998.50;2092598;28;47231;-48
2021/10/13 04:22:31;;;;;;;;;9.00;7.00;;;;;13.78;61.52;101996.72;2092547;28;47439;-49
2021/10/13 04:23:32;;;;;;;;;7.75;7.75;;;;;13.78;61.71;101999.41;2092541;28;47718;-50
2021/10/13 04:24:32;;;;;;;;;7.25;7.25;;;;;13.77;61.60;101996.75;2092694;28;45454;-50
2021/10/13 04:25:33;;;;;;;;;6.25;6.25;;;;;13.75;61.84;101990.56;2092499;28;47102;-49
2021/10/13 04:26:33;;;;;;;;;5.50;5.50;;;;;13.74;61.73;101996.81;2092058;28;45736;-49
2021/10/13 04:27:34;;;;;;;;;8.00;6.50;;;;;13.73;61.81;101995.06;2091689;28;46991;-50
2021/10/13 04:28:35;;;;;;;;;9.75;8.25;;;;;13.72;61.75;101995.94;2092784;28;47453;-51
2021/10/13 04:29:35;;;;;;;;;10.33;7.33;;;;;13.72;61.81;101999.50;2092387;28;47313;-49
2021/10/13 04:30:37;;;;;;;;;7.00;6.00;;;;;13.72;61.87;101998.59;2092624;28;46031;-47
2021/10/13 04:31:37;;;;;;;;;9.25;7.75;;;;;13.71;61.84;102003.03;2092376;28;48254;-48
2021/10/13 04:32:38;;;;;;;;;9.00;8.00;;;;;13.71;61.81;102002.16;2093472;28;48011;-52
2021/10/13 04:33:38;;;;;;;;;7.00;7.00;;;;;13.70;61.74;101995.94;2093366;28;45230;-51
2021/10/13 04:34:39;;;;;;;;;8.00;8.00;;;;;13.70;61.68;102003.06;2093498;28;47182;-48
2021/10/13 04:35:40;;;;;;;;;8.00;8.00;;;;;13.68;61.70;101995.09;2093087;28;47988;-48
2021/10/13 04:36:40;;;;;;;;;8.00;7.50;;;;;13.69;61.70;102007.53;2093922;28;45258;-50
2021/10/13 04:37:41;;;;;;;;;8.25;7.25;;;;;13.70;61.83;102003.06;2094635;28;47905;-48
2021/10/13 04:38:42;;;;;;;;;11.50;9.25;;;;;13.69;61.82;102006.66;2093577;28;46062;-49
2021/10/13 04:39:43;;;;;;;;;9.75;8.75;;;;;13.68;61.57;102004.88;2092439;28;47491;-50
2021/10/13 04:40:44;;;;;;;;;8.00;8.00;;;;;13.67;61.54;102004.00;2094544;28;46354;-48
2021/10/13 04:41:45;;;;;;;;;5.80;5.20;;;;;13.67;61.45;102005.78;2094194;28;46751;-49
2021/10/13 04:42:46;;;;;;;;;6.40;6.40;;;;;13.65;61.47;102008.47;2094698;28;46816;-51
2021/10/13 04:43:48;;;;;;;;;8.50;7.25;;;;;13.65;61.62;102007.59;2085301;28;45108;-50
2021/10/13 04:44:48;;;;;;;;;10.40;8.60;;;;;13.63;61.80;102009.41;2084696;28;45587;-53
2021/10/13 04:45:49;;;;;;;;;10.50;10.50;;;;;13.61;61.68;102014.78;2091854;28;45272;-50
2021/10/13 04:46:49;;;;;;;;;8.50;8.50;;;;;13.61;61.65;102011.22;2093189;28;47341;-48
2021/10/13 04:48:10;;;;;;;;;7.00;7.00;;;;;13.60;61.45;102014.81;2084282;28;45192;-48
2021/10/13 04:49:31;;;;;;;;;7.80;7.80;;;;;13.59;61.60;102019.22;2090190;28;45095;-48
2021/10/13 04:50:52;;;;;;;;;9.00;8.60;;;;;13.59;61.35;102015.66;2091588;28;47143;-51
2021/10/13 04:52:12;;;;;;;;;8.00;7.60;;;;;13.58;61.68;102011.25;2089341;28;46868;-47
2021/10/13 04:53:33;;;;;;;;;9.20;9.20;;;;;13.59;61.85;102019.22;2090185;28;45325;-46
2021/10/13 04:54:53;;;;;;;;;8.60;8.60;;;;;13.59;61.67;102019.22;2083652;28;47549;-47
2021/10/13 04:56:13;;;;;;;;;10.60;8.60;;;;;13.59;61.53;102021.88;2080821;28;47658;-52